sensor_id;sensor_type;location;lat;lon;timestamp;temperature;humidity
14277;DHT22;7222;57.346;12.150;2022-11-15T00:02:21;9.80;99.90
14277;DHT22;7222;57.346;12.150;2022-11-15T00:04:49;9.80;99.90
14277;DHT22;7222;57.346;12.150;2022-11-15T00:07:16;9.80;99.90
14277;DHT22;7222;57.346;12.150;2022-11-15T00:09:43;9.80;99.90
14277;DHT22;7222;57.346;12.150;2022-11-15T00:12:12;9.80;99.90
14277;DHT22;7222;57.346;12.150;2022-11-15T00:14:39;9.80;99.90
14277;DHT22;7222;57.346;12.150;2022-11-15T00:17:06;9.80;99.90
14277;DHT22;7222;57.346;12.150;2022-11-15T00:19:33;9.80;99.90
14277;DHT22;7222;57.346;12.150;2022-11-15T00:22:00;9.70;99.90
14277;DHT22;7222;57.346;12.150;2022-11-15T00:24:27;9.80;99.90
14277;DHT22;7222;57.346;12.150;2022-11-15T00:26:54;9.80;99.90
14277;DHT22;7222;57.346;12.150;2022-11-15T00:29:23;9.70;99.90
14277;DHT22;7222;57.346;12.150;2022-11-15T00:31:50;9.80;99.90
14277;DHT22;7222;57.346;12.150;2022-11-15T00:34:17;9.80;99.90
14277;DHT22;7222;57.346;12.150;2022-11-15T00:36:44;9.70;99.90
14277;DHT22;7222;57.346;12.150;2022-11-15T00:39:11;9.70;99.90
14277;DHT22;7222;57.346;12.150;2022-11-15T00:41:38;9.70;99.90
14277;DHT22;7222;57.346;12.150;2022-11-15T00:44:05;9.70;99.90
14277;DHT22;7222;57.346;12.150;2022-11-15T00:46:34;9.70;99.90
14277;DHT22;7222;57.346;12.150;2022-11-15T00:49:01;9.70;99.90
14277;DHT22;7222;57.346;12.150;2022-11-15T00:51:28;9.70;99.90
14277;DHT22;7222;57.346;12.150;2022-11-15T00:53:55;9.70;99.90
14277;DHT22;7222;57.346;12.150;2022-11-15T00:56:22;9.70;99.90
14277;DHT22;7222;57.346;12.150;2022-11-15T00:58:49;9.70;99.90
14277;DHT22;7222;57.346;12.150;2022-11-15T01:01:16;9.60;99.90
14277;DHT22;7222;57.346;12.150;2022-11-15T01:03:45;9.70;99.90
14277;DHT22;7222;57.346;12.150;2022-11-15T01:06:12;9.70;99.90
14277;DHT22;7222;57.346;12.150;2022-11-15T01:08:39;9.70;99.90
14277;DHT22;7222;57.346;12.150;2022-11-15T01:11:08;9.60;99.90
14277;DHT22;7222;57.346;12.150;2022-11-15T01:13:37;9.70;99.90
14277;DHT22;7222;57.346;12.150;2022-11-15T01:16:10;9.60;99.90
14277;DHT22;7222;57.346;12.150;2022-11-15T01:18:38;9.60;99.90
14277;DHT22;7222;57.346;12.150;2022-11-15T01:21:09;9.60;99.90
14277;DHT22;7222;57.346;12.150;2022-11-15T01:23:36;9.60;99.90
14277;DHT22;7222;57.346;12.150;2022-11-15T01:26:05;9.60;99.90
14277;DHT22;7222;57.346;12.150;2022-11-15T01:28:33;9.60;99.90
14277;DHT22;7222;57.346;12.150;2022-11-15T01:31:02;9.60;99.90
14277;DHT22;7222;57.346;12.150;2022-11-15T01:33:30;9.60;99.90
14277;DHT22;7222;57.346;12.150;2022-11-15T01:35:57;9.60;99.90
14277;DHT22;7222;57.346;12.150;2022-11-15T01:38:25;9.60;99.90
14277;DHT22;7222;57.346;12.150;2022-11-15T01:40:52;9.60;99.90
14277;DHT22;7222;57.346;12.150;2022-11-15T01:43:22;9.60;99.90
14277;DHT22;7222;57.346;12.150;2022-11-15T01:45:52;9.60;99.90
14277;DHT22;7222;57.346;12.150;2022-11-15T01:48:27;9.60;99.90
14277;DHT22;7222;57.346;12.150;2022-11-15T01:50:55;9.60;99.90
14277;DHT22;7222;57.346;12.150;2022-11-15T01:53:25;9.50;99.90
14277;DHT22;7222;57.346;12.150;2022-11-15T01:55:53;9.60;99.90
14277;DHT22;7222;57.346;12.150;2022-11-15T01:58:23;9.50;99.90
14277;DHT22;7222;57.346;12.150;2022-11-15T02:00:51;9.60;99.90
14277;DHT22;7222;57.346;12.150;2022-11-15T02:03:20;9.50;99.90
14277;DHT22;7222;57.346;12.150;2022-11-15T02:05:50;9.50;99.90
14277;DHT22;7222;57.346;12.150;2022-11-15T02:08:17;9.50;99.90
14277;DHT22;7222;57.346;12.150;2022-11-15T02:10:47;9.60;99.90
14277;DHT22;7222;57.346;12.150;2022-11-15T02:13:15;9.60;99.90
14277;DHT22;7222;57.346;12.150;2022-11-15T02:15:49;9.60;99.90
14277;DHT22;7222;57.346;12.150;2022-11-15T02:18:23;9.60;99.90
14277;DHT22;7222;57.346;12.150;2022-11-15T02:21:02;9.60;99.90
14277;DHT22;7222;57.346;12.150;2022-11-15T02:27:03;9.60;99.90
14277;DHT22;7222;57.346;12.150;2022-11-15T02:29:51;9.60;99.90
14277;DHT22;7222;57.346;12.150;2022-11-15T02:32:32;9.50;99.90
14277;DHT22;7222;57.346;12.150;2022-11-15T02:35:07;9.50;99.90
14277;DHT22;7222;57.346;12.150;2022-11-15T02:37:44;9.50;99.90
14277;DHT22;7222;57.346;12.150;2022-11-15T02:40:20;9.50;99.90
14277;DHT22;7222;57.346;12.150;2022-11-15T02:42:53;9.60;99.90
14277;DHT22;7222;57.346;12.150;2022-11-15T02:45:41;9.50;99.90
14277;DHT22;7222;57.346;12.150;2022-11-15T02:48:14;9.50;99.90
14277;DHT22;7222;57.346;12.150;2022-11-15T02:50:42;9.60;99.90
14277;DHT22;7222;57.346;12.150;2022-11-15T02:53:10;9.60;99.90
14277;DHT22;7222;57.346;12.150;2022-11-15T02:55:39;9.60;99.90
14277;DHT22;7222;57.346;12.150;2022-11-15T03:01:11;9.50;99.90
14277;DHT22;7222;57.346;12.150;2022-11-15T03:03:58;9.60;99.90
14277;DHT22;7222;57.346;12.150;2022-11-15T03:06:34;9.50;99.90
14277;DHT22;7222;57.346;12.150;2022-11-15T03:09:07;9.50;99.90
14277;DHT22;7222;57.346;12.150;2022-11-15T03:11:39;9.50;99.90
14277;DHT22;7222;57.346;12.150;2022-11-15T03:14:13;9.50;99.90
14277;DHT22;7222;57.346;12.150;2022-11-15T03:16:48;9.50;99.90
14277;DHT22;7222;57.346;12.150;2022-11-15T03:19:23;9.50;99.90
14277;DHT22;7222;57.346;12.150;2022-11-15T03:21:55;9.50;99.90
14277;DHT22;7222;57.346;12.150;2022-11-15T03:24:23;9.50;99.90
14277;DHT22;7222;57.346;12.150;2022-11-15T03:26:53;9.50;99.90
14277;DHT22;7222;57.346;12.150;2022-11-15T03:29:24;9.50;99.90
14277;DHT22;7222;57.346;12.150;2022-11-15T03:31:56;9.50;99.90
14277;DHT22;7222;57.346;12.150;2022-11-15T03:34:31;9.50;99.90
14277;DHT22;7222;57.346;12.150;2022-11-15T03:36:59;9.50;99.90
14277;DHT22;7222;57.346;12.150;2022-11-15T03:39:26;9.50;99.90
14277;DHT22;7222;57.346;12.150;2022-11-15T03:42:02;9.50;99.90
14277;DHT22;7222;57.346;12.150;2022-11-15T03:44:37;9.50;99.90
14277;DHT22;7222;57.346;12.150;2022-11-15T03:47:11;9.50;99.90
14277;DHT22;7222;57.346;12.150;2022-11-15T03:49:44;9.50;99.90
14277;DHT22;7222;57.346;12.150;2022-11-15T03:52:17;9.50;99.90
14277;DHT22;7222;57.346;12.150;2022-11-15T03:54:49;9.50;99.90
14277;DHT22;7222;57.346;12.150;2022-11-15T03:57:18;9.50;99.90
14277;DHT22;7222;57.346;12.150;2022-11-15T03:59:45;9.50;99.90
14277;DHT22;7222;57.346;12.150;2022-11-15T04:02:12;9.50;99.90
14277;DHT22;7222;57.346;12.150;2022-11-15T04:04:41;9.50;99.90
14277;DHT22;7222;57.346;12.150;2022-11-15T04:07:08;9.50;99.90
14277;DHT22;7222;57.346;12.150;2022-11-15T04:09:35;9.50;99.90
14277;DHT22;7222;57.346;12.150;2022-11-15T04:12:23;9.50;99.90
14277;DHT22;7222;57.346;12.150;2022-11-15T04:14:58;9.50;99.90
14277;DHT22;7222;57.346;12.150;2022-11-15T04:17:35;9.50;99.90
14277;DHT22;7222;57.346;12.150;2022-11-15T04:20:06;9.50;99.90
14277;DHT22;7222;57.346;12.150;2022-11-15T04:22:53;9.50;99.90
14277;DHT22;7222;57.346;12.150;2022-11-15T04:25:37;9.40;99.90
14277;DHT22;7222;57.346;12.150;2022-11-15T04:28:04;9.50;99.90
14277;DHT22;7222;57.346;12.150;2022-11-15T04:30:32;9.40;99.90
14277;DHT22;7222;57.346;12.150;2022-11-15T04:32:59;9.50;99.90
14277;DHT22;7222;57.346;12.150;2022-11-15T04:35:27;9.50;99.90
14277;DHT22;7222;57.346;12.150;2022-11-15T04:37:54;9.50;99.90
14277;DHT22;7222;57.346;12.150;2022-11-15T04:40:21;9.50;99.90
14277;DHT22;7222;57.346;12.150;2022-11-15T04:42:48;9.50;99.90
14277;DHT22;7222;57.346;12.150;2022-11-15T04:45:16;9.50;99.90
14277;DHT22;7222;57.346;12.150;2022-11-15T04:47:43;9.50;99.90
14277;DHT22;7222;57.346;12.150;2022-11-15T04:50:12;9.50;99.90
14277;DHT22;7222;57.346;12.150;2022-11-15T04:52:43;9.40;99.90
14277;DHT22;7222;57.346;12.150;2022-11-15T04:55:11;9.50;99.90
14277;DHT22;7222;57.346;12.150;2022-11-15T04:57:38;9.50;99.90
14277;DHT22;7222;57.346;12.150;2022-11-15T05:00:07;9.50;99.90
14277;DHT22;7222;57.346;12.150;2022-11-15T05:02:35;9.50;99.90
14277;DHT22;7222;57.346;12.150;2022-11-15T05:05:19;9.40;99.90
14277;DHT22;7222;57.346;12.150;2022-11-15T05:07:48;9.50;99.90
14277;DHT22;7222;57.346;12.150;2022-11-15T05:10:15;9.50;99.90
14277;DHT22;7222;57.346;12.150;2022-11-15T05:12:43;9.50;99.90
14277;DHT22;7222;57.346;12.150;2022-11-15T05:15:10;9.50;99.90
14277;DHT22;7222;57.346;12.150;2022-11-15T05:17:37;9.50;99.90
14277;DHT22;7222;57.346;12.150;2022-11-15T05:20:05;9.50;99.90
14277;DHT22;7222;57.346;12.150;2022-11-15T05:22:32;9.50;99.90
14277;DHT22;7222;57.346;12.150;2022-11-15T05:25:00;9.40;99.90
14277;DHT22;7222;57.346;12.150;2022-11-15T05:27:28;9.50;99.90
14277;DHT22;7222;57.346;12.150;2022-11-15T05:29:55;9.50;99.90
14277;DHT22;7222;57.346;12.150;2022-11-15T05:32:22;9.50;99.90
14277;DHT22;7222;57.346;12.150;2022-11-15T05:34:50;9.50;99.90
14277;DHT22;7222;57.346;12.150;2022-11-15T05:37:18;9.50;99.90
14277;DHT22;7222;57.346;12.150;2022-11-15T05:39:45;9.50;99.90
14277;DHT22;7222;57.346;12.150;2022-11-15T05:42:14;9.40;99.90
14277;DHT22;7222;57.346;12.150;2022-11-15T05:44:46;9.50;99.90
14277;DHT22;7222;57.346;12.150;2022-11-15T05:47:16;9.50;99.90
14277;DHT22;7222;57.346;12.150;2022-11-15T05:49:44;9.50;99.90
14277;DHT22;7222;57.346;12.150;2022-11-15T05:52:13;9.50;99.90
14277;DHT22;7222;57.346;12.150;2022-11-15T05:54:42;9.50;99.90
14277;DHT22;7222;57.346;12.150;2022-11-15T05:57:10;9.50;99.90
14277;DHT22;7222;57.346;12.150;2022-11-15T05:59:38;9.50;99.90
14277;DHT22;7222;57.346;12.150;2022-11-15T06:02:06;9.40;99.90
14277;DHT22;7222;57.346;12.150;2022-11-15T06:04:33;9.40;99.90
14277;DHT22;7222;57.346;12.150;2022-11-15T06:07:00;9.50;99.90
14277;DHT22;7222;57.346;12.150;2022-11-15T06:09:27;9.50;99.90
14277;DHT22;7222;57.346;12.150;2022-11-15T06:11:55;9.50;99.90
14277;DHT22;7222;57.346;12.150;2022-11-15T06:14:22;9.50;99.90
14277;DHT22;7222;57.346;12.150;2022-11-15T06:16:50;9.50;99.90
14277;DHT22;7222;57.346;12.150;2022-11-15T06:19:17;9.50;99.90
14277;DHT22;7222;57.346;12.150;2022-11-15T06:21:44;9.50;99.90
14277;DHT22;7222;57.346;12.150;2022-11-15T06:24:12;9.50;99.90
14277;DHT22;7222;57.346;12.150;2022-11-15T06:26:39;9.50;99.90
14277;DHT22;7222;57.346;12.150;2022-11-15T06:29:06;9.50;99.90
14277;DHT22;7222;57.346;12.150;2022-11-15T06:31:33;9.50;99.90
14277;DHT22;7222;57.346;12.150;2022-11-15T06:34:02;9.50;99.90
14277;DHT22;7222;57.346;12.150;2022-11-15T06:36:29;9.50;99.90
14277;DHT22;7222;57.346;12.150;2022-11-15T06:38:57;9.50;99.90
14277;DHT22;7222;57.346;12.150;2022-11-15T06:41:24;9.50;99.90
14277;DHT22;7222;57.346;12.150;2022-11-15T06:43:51;9.50;99.90
14277;DHT22;7222;57.346;12.150;2022-11-15T06:46:18;9.50;99.90
14277;DHT22;7222;57.346;12.150;2022-11-15T06:48:45;9.50;99.90
14277;DHT22;7222;57.346;12.150;2022-11-15T06:51:14;9.50;99.90
14277;DHT22;7222;57.346;12.150;2022-11-15T06:53:42;9.50;99.90
14277;DHT22;7222;57.346;12.150;2022-11-15T06:56:09;9.50;99.90
14277;DHT22;7222;57.346;12.150;2022-11-15T06:58:37;9.50;99.90
14277;DHT22;7222;57.346;12.150;2022-11-15T07:01:06;9.50;99.90
14277;DHT22;7222;57.346;12.150;2022-11-15T07:03:34;9.60;99.90
14277;DHT22;7222;57.346;12.150;2022-11-15T07:06:02;9.50;99.90
14277;DHT22;7222;57.346;12.150;2022-11-15T07:08:30;9.50;99.90
14277;DHT22;7222;57.346;12.150;2022-11-15T07:10:58;9.50;99.90
14277;DHT22;7222;57.346;12.150;2022-11-15T07:13:27;9.60;99.90
14277;DHT22;7222;57.346;12.150;2022-11-15T07:15:55;9.50;99.90
14277;DHT22;7222;57.346;12.150;2022-11-15T07:18:22;9.60;99.90
14277;DHT22;7222;57.346;12.150;2022-11-15T07:20:49;9.50;99.90
14277;DHT22;7222;57.346;12.150;2022-11-15T07:23:16;9.50;99.90
14277;DHT22;7222;57.346;12.150;2022-11-15T07:25:45;9.50;99.90
14277;DHT22;7222;57.346;12.150;2022-11-15T07:28:12;9.60;99.90
14277;DHT22;7222;57.346;12.150;2022-11-15T07:30:39;9.50;99.90
14277;DHT22;7222;57.346;12.150;2022-11-15T07:33:06;9.60;99.90
14277;DHT22;7222;57.346;12.150;2022-11-15T07:35:33;9.60;99.90
14277;DHT22;7222;57.346;12.150;2022-11-15T07:38:01;9.60;99.90
14277;DHT22;7222;57.346;12.150;2022-11-15T07:40:30;9.60;99.90
14277;DHT22;7222;57.346;12.150;2022-11-15T07:43:03;9.60;99.90
14277;DHT22;7222;57.346;12.150;2022-11-15T07:45:32;9.60;99.90
14277;DHT22;7222;57.346;12.150;2022-11-15T07:48:00;9.70;99.90
14277;DHT22;7222;57.346;12.150;2022-11-15T07:50:27;9.70;99.90
14277;DHT22;7222;57.346;12.150;2022-11-15T07:52:55;9.70;99.90
14277;DHT22;7222;57.346;12.150;2022-11-15T07:55:23;9.70;99.90
14277;DHT22;7222;57.346;12.150;2022-11-15T07:57:50;9.70;99.90
14277;DHT22;7222;57.346;12.150;2022-11-15T08:00:20;9.70;99.90
14277;DHT22;7222;57.346;12.150;2022-11-15T08:02:47;9.70;99.90
14277;DHT22;7222;57.346;12.150;2022-11-15T08:05:14;9.70;99.90
14277;DHT22;7222;57.346;12.150;2022-11-15T08:07:41;9.70;99.90
14277;DHT22;7222;57.346;12.150;2022-11-15T08:10:10;9.70;99.90
14277;DHT22;7222;57.346;12.150;2022-11-15T08:12:37;9.70;99.90
14277;DHT22;7222;57.346;12.150;2022-11-15T08:15:05;9.70;99.90
14277;DHT22;7222;57.346;12.150;2022-11-15T08:17:34;9.80;99.90
14277;DHT22;7222;57.346;12.150;2022-11-15T08:20:01;9.80;99.90
14277;DHT22;7222;57.346;12.150;2022-11-15T08:22:29;9.80;99.90
14277;DHT22;7222;57.346;12.150;2022-11-15T08:24:56;9.80;99.90
14277;DHT22;7222;57.346;12.150;2022-11-15T08:27:23;9.80;99.90
14277;DHT22;7222;57.346;12.150;2022-11-15T08:29:50;9.80;99.90
14277;DHT22;7222;57.346;12.150;2022-11-15T08:32:17;9.80;99.90
14277;DHT22;7222;57.346;12.150;2022-11-15T08:34:45;9.80;99.90
14277;DHT22;7222;57.346;12.150;2022-11-15T08:37:12;9.80;99.90
14277;DHT22;7222;57.346;12.150;2022-11-15T08:39:40;9.80;99.90
14277;DHT22;7222;57.346;12.150;2022-11-15T08:42:07;9.80;99.90
14277;DHT22;7222;57.346;12.150;2022-11-15T08:44:34;9.80;99.90
14277;DHT22;7222;57.346;12.150;2022-11-15T08:47:01;9.80;99.90
14277;DHT22;7222;57.346;12.150;2022-11-15T08:49:29;9.80;99.90
14277;DHT22;7222;57.346;12.150;2022-11-15T08:51:57;9.80;99.90
14277;DHT22;7222;57.346;12.150;2022-11-15T08:54:24;9.90;99.90
14277;DHT22;7222;57.346;12.150;2022-11-15T08:56:52;9.90;99.90
14277;DHT22;7222;57.346;12.150;2022-11-15T08:59:19;9.90;99.90
14277;DHT22;7222;57.346;12.150;2022-11-15T09:01:46;9.90;99.90
14277;DHT22;7222;57.346;12.150;2022-11-15T09:04:13;9.90;99.90
14277;DHT22;7222;57.346;12.150;2022-11-15T09:06:40;9.90;99.90
14277;DHT22;7222;57.346;12.150;2022-11-15T09:09:09;9.90;99.90
14277;DHT22;7222;57.346;12.150;2022-11-15T09:11:36;9.90;99.90
14277;DHT22;7222;57.346;12.150;2022-11-15T09:14:03;9.90;99.90
14277;DHT22;7222;57.346;12.150;2022-11-15T09:16:31;9.90;99.90
14277;DHT22;7222;57.346;12.150;2022-11-15T09:18:58;10.00;99.90
14277;DHT22;7222;57.346;12.150;2022-11-15T09:21:25;10.00;99.90
14277;DHT22;7222;57.346;12.150;2022-11-15T09:23:52;10.00;99.90
14277;DHT22;7222;57.346;12.150;2022-11-15T09:26:20;10.00;99.90
14277;DHT22;7222;57.346;12.150;2022-11-15T09:28:48;10.00;99.90
14277;DHT22;7222;57.346;12.150;2022-11-15T09:31:19;10.00;99.90
14277;DHT22;7222;57.346;12.150;2022-11-15T09:33:46;10.00;99.90
14277;DHT22;7222;57.346;12.150;2022-11-15T09:36:13;10.00;99.90
14277;DHT22;7222;57.346;12.150;2022-11-15T09:38:40;10.00;99.90
14277;DHT22;7222;57.346;12.150;2022-11-15T09:41:30;10.10;99.90
14277;DHT22;7222;57.346;12.150;2022-11-15T09:46:54;10.10;99.90
14277;DHT22;7222;57.346;12.150;2022-11-15T09:49:23;10.10;99.90
14277;DHT22;7222;57.346;12.150;2022-11-15T09:51:52;10.10;99.90
14277;DHT22;7222;57.346;12.150;2022-11-15T09:54:28;10.10;99.90
14277;DHT22;7222;57.346;12.150;2022-11-15T09:57:04;10.20;99.90
14277;DHT22;7222;57.346;12.150;2022-11-15T09:59:59;10.20;99.90
14277;DHT22;7222;57.346;12.150;2022-11-15T10:02:38;10.20;99.90
14277;DHT22;7222;57.346;12.150;2022-11-15T10:05:12;10.20;99.90
14277;DHT22;7222;57.346;12.150;2022-11-15T10:07:49;10.20;99.90
14277;DHT22;7222;57.346;12.150;2022-11-15T10:10:24;10.20;99.90
14277;DHT22;7222;57.346;12.150;2022-11-15T10:12:55;10.20;99.90
14277;DHT22;7222;57.346;12.150;2022-11-15T10:15:22;10.20;99.90
14277;DHT22;7222;57.346;12.150;2022-11-15T10:18:06;10.30;99.90
14277;DHT22;7222;57.346;12.150;2022-11-15T10:20:42;10.30;99.90
14277;DHT22;7222;57.346;12.150;2022-11-15T10:23:11;10.30;99.90
14277;DHT22;7222;57.346;12.150;2022-11-15T10:25:39;10.30;99.90
14277;DHT22;7222;57.346;12.150;2022-11-15T10:28:14;10.30;99.90
14277;DHT22;7222;57.346;12.150;2022-11-15T10:30:44;10.30;99.90
14277;DHT22;7222;57.346;12.150;2022-11-15T10:33:24;10.30;99.90
14277;DHT22;7222;57.346;12.150;2022-11-15T10:36:19;10.40;99.90
14277;DHT22;7222;57.346;12.150;2022-11-15T10:38:56;10.40;99.90
14277;DHT22;7222;57.346;12.150;2022-11-15T10:41:35;10.30;99.90
14277;DHT22;7222;57.346;12.150;2022-11-15T10:44:17;10.30;99.90
14277;DHT22;7222;57.346;12.150;2022-11-15T10:46:46;10.40;99.90
14277;DHT22;7222;57.346;12.150;2022-11-15T10:49:15;10.40;99.90
14277;DHT22;7222;57.346;12.150;2022-11-15T10:51:45;10.40;99.90
14277;DHT22;7222;57.346;12.150;2022-11-15T10:54:28;10.40;99.90
14277;DHT22;7222;57.346;12.150;2022-11-15T10:56:59;10.40;99.90
14277;DHT22;7222;57.346;12.150;2022-11-15T10:59:30;10.40;99.90
14277;DHT22;7222;57.346;12.150;2022-11-15T11:01:59;10.50;99.90
14277;DHT22;7222;57.346;12.150;2022-11-15T11:04:27;10.50;99.90
14277;DHT22;7222;57.346;12.150;2022-11-15T11:06:56;10.50;99.90
14277;DHT22;7222;57.346;12.150;2022-11-15T11:09:29;10.50;99.90
14277;DHT22;7222;57.346;12.150;2022-11-15T11:11:58;10.50;99.90
14277;DHT22;7222;57.346;12.150;2022-11-15T11:14:28;10.60;99.90
14277;DHT22;7222;57.346;12.150;2022-11-15T11:17:04;10.60;99.90
14277;DHT22;7222;57.346;12.150;2022-11-15T11:19:49;10.60;99.90
14277;DHT22;7222;57.346;12.150;2022-11-15T11:22:25;10.60;99.90
14277;DHT22;7222;57.346;12.150;2022-11-15T11:25:03;10.60;99.90
14277;DHT22;7222;57.346;12.150;2022-11-15T11:27:40;10.70;99.90
14277;DHT22;7222;57.346;12.150;2022-11-15T11:30:14;10.70;99.90
14277;DHT22;7222;57.346;12.150;2022-11-15T11:32:52;10.70;99.90
14277;DHT22;7222;57.346;12.150;2022-11-15T11:35:26;10.80;99.90
14277;DHT22;7222;57.346;12.150;2022-11-15T11:38:05;10.80;99.90
14277;DHT22;7222;57.346;12.150;2022-11-15T11:40:41;10.80;99.90
14277;DHT22;7222;57.346;12.150;2022-11-15T11:43:16;10.70;99.90
14277;DHT22;7222;57.346;12.150;2022-11-15T11:46:07;10.70;99.90
14277;DHT22;7222;57.346;12.150;2022-11-15T11:48:41;10.80;99.90
14277;DHT22;7222;57.346;12.150;2022-11-15T11:51:15;10.80;99.90
14277;DHT22;7222;57.346;12.150;2022-11-15T11:53:47;10.80;99.90
14277;DHT22;7222;57.346;12.150;2022-11-15T11:56:23;10.80;99.90
14277;DHT22;7222;57.346;12.150;2022-11-15T11:58:54;10.80;99.90
14277;DHT22;7222;57.346;12.150;2022-11-15T12:01:25;10.80;99.90
14277;DHT22;7222;57.346;12.150;2022-11-15T12:03:57;10.90;99.90
14277;DHT22;7222;57.346;12.150;2022-11-15T12:06:31;10.90;99.90
14277;DHT22;7222;57.346;12.150;2022-11-15T12:09:03;10.90;99.90
14277;DHT22;7222;57.346;12.150;2022-11-15T12:11:38;10.90;99.90
14277;DHT22;7222;57.346;12.150;2022-11-15T12:14:20;10.80;99.90
14277;DHT22;7222;57.346;12.150;2022-11-15T12:16:51;10.80;99.90
14277;DHT22;7222;57.346;12.150;2022-11-15T12:19:18;10.80;99.90
14277;DHT22;7222;57.346;12.150;2022-11-15T12:21:48;10.90;99.90
14277;DHT22;7222;57.346;12.150;2022-11-15T12:24:20;10.80;99.90
14277;DHT22;7222;57.346;12.150;2022-11-15T12:26:52;10.80;99.90
14277;DHT22;7222;57.346;12.150;2022-11-15T12:29:25;10.90;99.90
14277;DHT22;7222;57.346;12.150;2022-11-15T12:31:55;10.90;99.90
14277;DHT22;7222;57.346;12.150;2022-11-15T12:34:40;10.90;99.90
14277;DHT22;7222;57.346;12.150;2022-11-15T12:40:29;10.90;99.90
14277;DHT22;7222;57.346;12.150;2022-11-15T12:43:32;11.00;99.90
14277;DHT22;7222;57.346;12.150;2022-11-15T12:46:05;11.00;99.90
14277;DHT22;7222;57.346;12.150;2022-11-15T12:48:50;10.90;99.90
14277;DHT22;7222;57.346;12.150;2022-11-15T12:51:19;10.90;99.90
14277;DHT22;7222;57.346;12.150;2022-11-15T12:53:46;10.90;99.90
14277;DHT22;7222;57.346;12.150;2022-11-15T12:56:23;10.80;99.90
14277;DHT22;7222;57.346;12.150;2022-11-15T12:58:53;11.00;99.90
14277;DHT22;7222;57.346;12.150;2022-11-15T13:01:54;10.90;99.90
14277;DHT22;7222;57.346;12.150;2022-11-15T13:04:27;10.90;99.90
14277;DHT22;7222;57.346;12.150;2022-11-15T13:06:56;10.90;99.90
14277;DHT22;7222;57.346;12.150;2022-11-15T13:12:53;10.90;99.90
14277;DHT22;7222;57.346;12.150;2022-11-15T13:15:45;10.90;99.90
14277;DHT22;7222;57.346;12.150;2022-11-15T13:18:38;10.90;99.90
14277;DHT22;7222;57.346;12.150;2022-11-15T13:21:21;10.90;99.90
14277;DHT22;7222;57.346;12.150;2022-11-15T13:24:12;10.90;99.90
14277;DHT22;7222;57.346;12.150;2022-11-15T13:26:40;10.80;99.90
14277;DHT22;7222;57.346;12.150;2022-11-15T13:29:16;10.80;99.90
14277;DHT22;7222;57.346;12.150;2022-11-15T13:31:44;10.80;99.90
14277;DHT22;7222;57.346;12.150;2022-11-15T13:34:22;10.80;99.90
14277;DHT22;7222;57.346;12.150;2022-11-15T13:36:53;10.90;99.90
14277;DHT22;7222;57.346;12.150;2022-11-15T13:39:27;10.80;99.90
14277;DHT22;7222;57.346;12.150;2022-11-15T13:41:54;10.70;99.90
14277;DHT22;7222;57.346;12.150;2022-11-15T13:44:24;10.80;99.90
14277;DHT22;7222;57.346;12.150;2022-11-15T13:47:01;10.80;99.90
14277;DHT22;7222;57.346;12.150;2022-11-15T13:49:30;10.70;99.90
14277;DHT22;7222;57.346;12.150;2022-11-15T13:52:00;10.70;99.90
14277;DHT22;7222;57.346;12.150;2022-11-15T13:54:30;10.60;99.90
14277;DHT22;7222;57.346;12.150;2022-11-15T13:57:02;10.70;99.90
14277;DHT22;7222;57.346;12.150;2022-11-15T13:59:33;10.70;99.90
14277;DHT22;7222;57.346;12.150;2022-11-15T14:02:10;10.60;99.90
14277;DHT22;7222;57.346;12.150;2022-11-15T14:04:39;10.70;99.90
14277;DHT22;7222;57.346;12.150;2022-11-15T14:07:17;10.70;99.90
14277;DHT22;7222;57.346;12.150;2022-11-15T14:09:46;10.60;99.90
14277;DHT22;7222;57.346;12.150;2022-11-15T14:12:26;10.60;99.90
14277;DHT22;7222;57.346;12.150;2022-11-15T14:14:55;10.60;99.90
14277;DHT22;7222;57.346;12.150;2022-11-15T14:17:34;10.60;99.90
14277;DHT22;7222;57.346;12.150;2022-11-15T14:20:02;10.60;99.90
14277;DHT22;7222;57.346;12.150;2022-11-15T14:22:53;10.70;99.90
14277;DHT22;7222;57.346;12.150;2022-11-15T14:25:21;10.70;99.90
14277;DHT22;7222;57.346;12.150;2022-11-15T14:28:12;10.70;99.90
14277;DHT22;7222;57.346;12.150;2022-11-15T14:30:40;10.60;99.90
14277;DHT22;7222;57.346;12.150;2022-11-15T14:33:20;10.60;99.90
14277;DHT22;7222;57.346;12.150;2022-11-15T14:35:48;10.60;99.90
14277;DHT22;7222;57.346;12.150;2022-11-15T14:38:17;10.60;99.90
14277;DHT22;7222;57.346;12.150;2022-11-15T14:40:44;10.60;99.90
14277;DHT22;7222;57.346;12.150;2022-11-15T14:43:12;10.60;99.90
14277;DHT22;7222;57.346;12.150;2022-11-15T14:45:40;10.50;99.90
14277;DHT22;7222;57.346;12.150;2022-11-15T14:48:07;10.50;99.90
14277;DHT22;7222;57.346;12.150;2022-11-15T14:50:35;10.50;99.90
14277;DHT22;7222;57.346;12.150;2022-11-15T14:53:03;10.40;99.90
14277;DHT22;7222;57.346;12.150;2022-11-15T14:55:33;10.40;99.90
14277;DHT22;7222;57.346;12.150;2022-11-15T14:58:02;10.30;99.90
14277;DHT22;7222;57.346;12.150;2022-11-15T15:00:29;10.30;99.90
14277;DHT22;7222;57.346;12.150;2022-11-15T15:02:56;10.20;99.90
14277;DHT22;7222;57.346;12.150;2022-11-15T15:05:29;10.20;99.90
14277;DHT22;7222;57.346;12.150;2022-11-15T15:07:58;10.20;99.90
14277;DHT22;7222;57.346;12.150;2022-11-15T15:10:25;10.20;99.90
14277;DHT22;7222;57.346;12.150;2022-11-15T15:12:55;10.10;99.90
14277;DHT22;7222;57.346;12.150;2022-11-15T15:15:25;10.10;99.90
14277;DHT22;7222;57.346;12.150;2022-11-15T15:17:53;10.10;99.90
14277;DHT22;7222;57.346;12.150;2022-11-15T15:20:20;10.10;99.90
14277;DHT22;7222;57.346;12.150;2022-11-15T15:22:47;10.00;99.90
14277;DHT22;7222;57.346;12.150;2022-11-15T15:25:22;10.00;99.90
14277;DHT22;7222;57.346;12.150;2022-11-15T15:27:49;10.00;99.90
14277;DHT22;7222;57.346;12.150;2022-11-15T15:30:18;10.00;99.90
14277;DHT22;7222;57.346;12.150;2022-11-15T15:32:45;9.90;99.90
14277;DHT22;7222;57.346;12.150;2022-11-15T15:35:13;9.90;99.90
14277;DHT22;7222;57.346;12.150;2022-11-15T15:37:41;9.90;99.90
14277;DHT22;7222;57.346;12.150;2022-11-15T15:40:14;9.90;99.90
14277;DHT22;7222;57.346;12.150;2022-11-15T15:42:42;9.90;99.90
14277;DHT22;7222;57.346;12.150;2022-11-15T15:45:10;9.80;99.90
14277;DHT22;7222;57.346;12.150;2022-11-15T15:47:39;9.80;99.90
14277;DHT22;7222;57.346;12.150;2022-11-15T15:50:20;9.70;99.90
14277;DHT22;7222;57.346;12.150;2022-11-15T15:52:48;9.70;99.90
14277;DHT22;7222;57.346;12.150;2022-11-15T15:55:16;9.60;99.90
14277;DHT22;7222;57.346;12.150;2022-11-15T15:57:43;9.70;99.90
14277;DHT22;7222;57.346;12.150;2022-11-15T16:00:12;9.70;99.90
14277;DHT22;7222;57.346;12.150;2022-11-15T16:02:40;9.60;99.90
14277;DHT22;7222;57.346;12.150;2022-11-15T16:05:08;9.60;99.90
14277;DHT22;7222;57.346;12.150;2022-11-15T16:07:35;9.60;99.90
14277;DHT22;7222;57.346;12.150;2022-11-15T16:10:04;9.60;99.90
14277;DHT22;7222;57.346;12.150;2022-11-15T16:12:40;9.50;99.90
14277;DHT22;7222;57.346;12.150;2022-11-15T16:15:08;9.50;99.90
14277;DHT22;7222;57.346;12.150;2022-11-15T16:17:38;9.50;99.90
14277;DHT22;7222;57.346;12.150;2022-11-15T16:22:57;9.40;99.90